METAR Data
IDs: Format: Raw Decoded Include TAF

Data at: 0437 UTC 26 Sep 2018

KTRI 260353Z 00000KT 10SM BKN250 21/18 A3014 RMK AO2 SLP182 T02110183
KTRI 260253Z 00000KT 10SM FEW050 SCT140 22/19 A3014 RMK AO2 SLP181 T02220189 51004
KTRI 260153Z 00000KT 10SM FEW050 SCT140 22/19 A3014 RMK AO2 SLP181 T02220189
KTRI 260053Z 16003KT 10SM SCT050 23/19 A3014 RMK AO2 SLP183 T02330194
KTRI 252353Z 00000KT 10SM SCT047 24/19 A3013 RMK AO2 SLP177 T02440194 10283 20244 53001
KTRI 252253Z 17004KT 10SM SCT190 26/19 A3011 RMK AO2 SLP173 T02610194
KTRI 252153Z 15004KT 10SM SCT160 28/19 A3011 RMK AO2 SLP172 T02780194
KTRI 252053Z 12004KT 10SM FEW065 BKN140 28/19 A3012 RMK AO2 SLP175 T02830194 58025
KTRI 251953Z 00000KT 10SM SCT065 BKN160 27/19 A3016 RMK AO2 SLP187 T02720194
KTRI 251853Z 14005KT 10SM FEW037 BKN130 27/19 A3017 RMK AO2 SLP193 T02670194
KTRI 251753Z 16007KT 10SM FEW033 SCT040 BKN100 27/19 A3020 RMK AO2 SLP201 60000 T02670194 10272 20194 58009
KTRI 251653Z 10003KT 10SM BKN075 BKN090 OVC110 25/21 A3021 RMK AO2 SLP206 T02500206
KTRI 251553Z 14004KT 10SM BKN070 BKN090 OVC100 23/19 A3023 RMK AO2 RAB19E45 SLP212 P0000 T02330194
KTRI 251453Z 12003KT 10SM OVC085 23/20 A3023 RMK AO2 RAB28E40 SLP212 P0000 60000 T02280200 51005
KTRI 251353Z 00000KT 10SM BKN070 OVC085 22/19 A3023 RMK AO2 SLP213 T02170194
KTRI 251253Z 00000KT 10SM SCT041 OVC210 20/19 A3022 RMK AO2 SLP211 T02000194
KTRI 251153Z 00000KT 10SM SCT041 OVC210 19/19 A3021 RMK AO2 SLP208 60001 70001 T01940189 10211 20189 53012
KTRI 251053Z 00000KT 10SM SCT100 OVC210 19/19 A3019 RMK AO2 SLP200 T01890189
KTRI 250953Z 00000KT 10SM SCT100 OVC210 19/19 A3019 RMK AO2 SLP199 T01890189
KTRI 250853Z 00000KT 10SM SCT065 BKN100 OVC210 19/19 A3018 RMK AO2 SLP195 60001 T01890189 56015
KTRI 250753Z 00000KT 10SM SCT070 BKN085 19/19 A3019 RMK AO2 RAE0655 SLP198 P0000 T01940189
KTRI 250653Z 00000KT 10SM -RA FEW048 BKN065 OVC085 20/19 A3021 RMK AO2 RAB11 SLP204 P0001 T02000189
KTRI 250553Z 24003KT 10SM FEW048 OVC070 21/18 A3022 RMK AO2 SLP209 60000 T02060178 10222 20206 51003
KTRI 250453Z 00000KT 10SM OVC075 21/17 A3022 RMK AO2 SLP208 T02110172 402670183
KTRI 250353Z 14003KT 10SM SCT100 OVC130 21/17 A3022 RMK AO2 SLP209 T02110167
KTRI 250253Z 11006KT 10SM BKN120 21/17 A3021 RMK AO2 RAB23E33 SLP206 P0000 60000 T02110167 51011
KTRI 250153Z 11006KT 10SM SCT120 22/17 A3020 RMK AO2 SLP203 T02170167
KTRI 250053Z 11006KT 10SM BKN080 BKN110 22/17 A3019 RMK AO2 RAB34E44 SLP200 P0000 T02170172
KTRI 242353Z 12005KT 10SM FEW065 OVC085 22/17 A3018 RMK AO2 SLP196 60000 T02220172 10267 20222 53007
KTRI 242253Z 12007KT 10SM OVC085 23/18 A3016 RMK AO2 SLP192 T02280178
KTRI 242153Z 12005KT 10SM BKN065 OVC110 24/18 A3016 RMK AO2 SLP190 T02390178
KTRI 242053Z 16009KT 10SM SCT085 OVC110 24/17 A3016 RMK AO2 SLP187 60000 T02440172 56011
KTRI 241953Z 17009KT 10SM SCT048 BKN120 OVC180 26/17 A3016 RMK AO2 SLP187 T02560172
KTRI 241853Z 15011KT 10SM SCT035 SCT065 OVC170 26/17 A3017 RMK AO2 RAB09E19 SLP190 P0000 T02610167
KTRI 241753Z 11005KT 10SM SCT030 SCT065 OVC110 25/18 A3019 RMK AO2 RAB1659E10 SLP199 P0000 60000 T02500183 10256 20189 58005
KTRI 241653Z 14006KT 10SM OVC120 25/18 A3020 RMK AO2 SLP203 T02500183